createdAt,value
2019-03-23T00:01:05.663Z,34.93
2019-03-23T00:03:36.539Z,38.53
2019-03-23T00:06:07.308Z,38.93
2019-03-23T00:08:38.308Z,36.13
2019-03-23T00:11:09.139Z,35.13
2019-03-23T00:13:40.101Z,34.97
2019-03-23T00:16:11.034Z,34.73
2019-03-23T00:18:41.875Z,33.43
2019-03-23T00:21:12.733Z,34.30
2019-03-23T00:23:43.601Z,33.63
2019-03-23T00:26:14.379Z,35.33
2019-03-23T00:28:46.344Z,36.13
2019-03-23T00:31:17.209Z,35.77
2019-03-23T00:33:48.095Z,35.40
2019-03-23T00:36:18.940Z,34.53
2019-03-23T00:38:49.954Z,34.23
2019-03-23T00:41:21.107Z,32.70
2019-03-23T00:43:52.888Z,35.67
2019-03-23T00:46:23.791Z,32.13
2019-03-23T00:48:54.688Z,35.03
2019-03-23T00:51:25.558Z,32.43
2019-03-23T00:53:56.388Z,31.53
2019-03-23T00:56:28.111Z,30.77
2019-03-23T00:58:59.050Z,30.47
2019-03-23T01:01:29.975Z,30.73
2019-03-23T01:04:00.788Z,31.30
2019-03-23T01:06:31.595Z,34.27
2019-03-23T01:09:02.588Z,33.10
2019-03-23T01:11:33.952Z,34.50
2019-03-23T01:14:05.005Z,30.93
2019-03-23T01:16:35.802Z,34.17
2019-03-23T01:19:06.695Z,34.57
2019-03-23T01:21:37.606Z,33.30
2019-03-23T01:24:08.572Z,35.43
2019-03-23T01:26:39.469Z,34.23
2019-03-23T01:29:10.247Z,33.00
2019-03-23T01:31:41.086Z,34.33
2019-03-23T01:34:11.891Z,32.03
2019-03-23T01:36:42.648Z,35.10
2019-03-23T01:39:13.698Z,36.03
2019-03-23T01:41:44.494Z,34.17
2019-03-23T01:44:15.250Z,35.07
2019-03-23T01:46:45.974Z,35.87
2019-03-23T01:49:16.774Z,32.87
2019-03-23T01:51:47.674Z,33.00
2019-03-23T01:54:18.485Z,33.63
2019-03-23T01:56:49.255Z,33.63
2019-03-23T01:59:20.054Z,32.10
2019-03-23T02:01:50.987Z,32.10
2019-03-23T02:04:23.033Z,33.73
2019-03-23T02:06:53.788Z,31.90
2019-03-23T02:09:25.727Z,31.57
2019-03-23T02:11:56.528Z,32.27
2019-03-23T02:14:27.442Z,32.40
2019-03-23T02:16:58.242Z,33.13
2019-03-23T02:19:29.917Z,30.00
2019-03-23T02:22:00.785Z,31.03
2019-03-23T02:24:31.723Z,29.87
2019-03-23T02:27:02.523Z,30.50
2019-03-23T02:29:33.397Z,32.07
2019-03-23T02:32:04.288Z,30.43
2019-03-23T02:34:35.605Z,32.27
2019-03-23T02:37:06.437Z,30.63
2019-03-23T02:39:37.303Z,29.93
2019-03-23T02:42:08.264Z,30.17
2019-03-23T02:44:39.089Z,29.57
2019-03-23T02:47:09.842Z,30.50
2019-03-23T02:49:40.651Z,29.40
2019-03-23T02:52:11.565Z,30.50
2019-03-23T02:54:42.568Z,29.60
2019-03-23T02:57:13.389Z,27.37
2019-03-23T02:59:44.267Z,31.50
2019-03-23T03:02:15.153Z,31.80
2019-03-23T03:04:45.943Z,30.40
2019-03-23T03:07:16.717Z,28.07
2019-03-23T03:09:49.086Z,30.33
2019-03-23T03:12:19.930Z,29.20
2019-03-23T03:14:51.270Z,28.10
2019-03-23T03:17:22.068Z,28.40
2019-03-23T03:19:54.625Z,28.17
2019-03-23T03:22:25.341Z,30.93
2019-03-23T03:24:56.426Z,29.07
2019-03-23T03:27:27.228Z,29.13
2019-03-23T03:29:58.534Z,30.27
2019-03-23T03:32:29.335Z,29.13
2019-03-23T03:35:00.675Z,29.43
2019-03-23T03:37:31.524Z,29.67
2019-03-23T03:40:02.369Z,29.93
2019-03-23T03:42:34.302Z,27.07
2019-03-23T03:45:05.368Z,27.73
2019-03-23T03:47:36.177Z,27.63
2019-03-23T03:50:08.140Z,29.13
2019-03-23T03:52:39.005Z,26.70
2019-03-23T03:55:09.923Z,26.87
2019-03-23T03:57:40.701Z,28.80
2019-03-23T04:00:11.714Z,29.70
2019-03-23T04:02:42.505Z,27.70
2019-03-23T04:05:13.376Z,28.43
2019-03-23T04:07:44.229Z,28.23
2019-03-23T04:10:16.668Z,28.47
2019-03-23T04:12:47.489Z,27.77
2019-03-23T04:15:18.967Z,28.80
2019-03-23T04:17:49.776Z,27.10
2019-03-23T04:20:20.567Z,27.33
2019-03-23T04:22:51.396Z,26.40
2019-03-23T04:25:22.508Z,28.50
2019-03-23T04:27:53.313Z,26.73
2019-03-23T04:30:24.108Z,26.80
2019-03-23T04:32:54.923Z,26.03
2019-03-23T04:35:25.810Z,26.80
2019-03-23T04:37:56.592Z,28.60
2019-03-23T04:40:27.619Z,26.63
2019-03-23T04:42:58.408Z,27.53
2019-03-23T04:45:29.266Z,27.50
2019-03-23T04:48:00.060Z,27.33
2019-03-23T04:50:32.027Z,27.30
2019-03-23T04:53:02.881Z,26.67
2019-03-23T04:55:33.891Z,27.93
2019-03-23T04:58:05.086Z,29.50
2019-03-23T05:00:37.034Z,28.53
2019-03-23T05:03:07.776Z,28.43
2019-03-23T05:05:38.671Z,27.93
2019-03-23T05:08:09.508Z,28.87
2019-03-23T05:10:40.306Z,27.87
2019-03-23T05:13:11.565Z,28.97
2019-03-23T05:15:43.851Z,27.70
2019-03-23T05:18:15.673Z,27.73
2019-03-23T05:20:46.503Z,27.87
2019-03-23T05:23:17.249Z,29.30
2019-03-23T05:25:48.303Z,25.47
2019-03-23T05:28:19.052Z,26.87
2019-03-23T05:30:50.942Z,27.80
2019-03-23T05:33:21.702Z,26.83
2019-03-23T05:35:52.560Z,26.47
2019-03-23T05:38:23.365Z,28.27
2019-03-23T05:40:54.370Z,28.37
2019-03-23T05:43:25.112Z,29.13
2019-03-23T05:45:55.985Z,29.10
2019-03-23T05:48:26.700Z,28.93
2019-03-23T05:50:57.523Z,29.00
2019-03-23T05:53:28.302Z,31.10
2019-03-23T05:55:59.277Z,28.40
2019-03-23T05:58:30.085Z,27.10
2019-03-23T06:01:00.982Z,26.47
2019-03-23T06:03:31.702Z,28.23
2019-03-23T06:06:02.532Z,26.80
2019-03-23T06:08:33.324Z,26.43
2019-03-23T06:11:04.256Z,25.87
2019-03-23T06:13:34.998Z,27.00
2019-03-23T06:16:06.092Z,26.03
2019-03-23T06:18:36.894Z,26.60
2019-03-23T06:21:07.664Z,26.50
2019-03-23T06:23:38.483Z,26.27
2019-03-23T06:26:09.355Z,24.77
2019-03-23T06:28:40.086Z,27.27
2019-03-23T06:31:10.830Z,28.30
2019-03-23T06:33:41.595Z,26.13
2019-03-23T06:36:12.441Z,25.97
2019-03-23T06:38:43.143Z,25.47
2019-03-23T06:41:14.146Z,25.23
2019-03-23T06:43:44.878Z,26.50
2019-03-23T06:46:15.684Z,25.80
2019-03-23T06:48:46.462Z,26.17
2019-03-23T06:51:17.258Z,25.43
2019-03-23T06:53:48.001Z,25.80
2019-03-23T06:56:19.031Z,26.13
2019-03-23T06:58:49.764Z,25.97
2019-03-23T07:01:20.541Z,26.43
2019-03-23T07:03:51.271Z,25.97
2019-03-23T07:06:22.145Z,26.03
2019-03-23T07:08:52.902Z,25.10
2019-03-23T07:11:23.818Z,25.57
2019-03-23T07:13:54.575Z,25.57
2019-03-23T07:16:25.600Z,25.50
2019-03-23T07:18:56.331Z,25.43
2019-03-23T07:21:27.135Z,23.40
2019-03-23T07:23:57.910Z,25.30
2019-03-23T07:26:28.767Z,28.10
2019-03-23T07:28:59.493Z,31.10
2019-03-23T07:31:30.296Z,25.97
2019-03-23T07:34:01.059Z,28.13
2019-03-23T07:36:31.876Z,21.20
2019-03-23T07:39:02.655Z,20.57
2019-03-23T07:41:33.537Z,18.83
2019-03-23T07:44:04.395Z,16.07
2019-03-23T07:46:35.293Z,17.23
2019-03-23T07:49:06.163Z,16.87
2019-03-23T07:51:36.947Z,16.77
2019-03-23T07:54:07.722Z,15.60
2019-03-23T07:56:38.700Z,15.90
2019-03-23T07:59:09.474Z,15.43
2019-03-23T08:01:40.272Z,15.30
2019-03-23T08:04:11.061Z,14.97
2019-03-23T08:06:41.907Z,13.70
2019-03-23T08:09:20.368Z,13.27
2019-03-23T08:11:45.209Z,12.47
2019-03-23T08:14:16.027Z,12.13
2019-03-23T08:16:48.323Z,12.40
2019-03-23T08:19:19.093Z,13.03
2019-03-23T08:21:50.007Z,13.63
2019-03-23T08:24:20.786Z,12.60
2019-03-23T08:26:51.693Z,12.83
2019-03-23T08:29:22.473Z,11.53
2019-03-23T08:31:54.509Z,12.27
2019-03-23T08:34:25.484Z,12.47
2019-03-23T08:36:56.356Z,11.07
2019-03-23T08:39:27.145Z,9.97
2019-03-23T08:41:57.958Z,4.83
2019-03-23T08:44:28.719Z,3.93
2019-03-23T08:47:00.626Z,4.00
2019-03-23T08:49:31.738Z,4.03
2019-03-23T08:52:02.518Z,3.83
2019-03-23T08:54:33.269Z,4.17
2019-03-23T08:57:04.209Z,4.53
2019-03-23T08:59:35.010Z,4.43
2019-03-23T09:02:05.975Z,4.50
2019-03-23T09:04:36.820Z,4.00
2019-03-23T09:07:07.659Z,4.67
2019-03-23T09:09:38.355Z,4.37
2019-03-23T09:12:09.315Z,4.73
2019-03-23T09:14:41.129Z,4.77
2019-03-23T09:17:12.308Z,4.70
2019-03-23T09:19:43.065Z,4.90
2019-03-23T09:22:15.007Z,5.33
2019-03-23T09:24:45.817Z,5.00
2019-03-23T09:27:16.684Z,5.20
2019-03-23T09:29:47.439Z,5.33
2019-03-23T09:32:18.267Z,5.30
2019-03-23T09:34:48.994Z,4.50
2019-03-23T09:37:19.811Z,4.43
2019-03-23T09:39:50.566Z,5.90
2019-03-23T09:42:21.352Z,4.90
2019-03-23T09:44:52.129Z,4.73
2019-03-23T09:47:23.140Z,4.77
2019-03-23T09:50:03.240Z,4.90
2019-03-23T09:52:34.079Z,4.50
2019-03-23T09:55:04.982Z,5.27
2019-03-23T09:57:35.845Z,6.07
2019-03-23T10:00:07.594Z,5.10
2019-03-23T10:02:38.429Z,5.30
2019-03-23T10:05:09.694Z,5.27
2019-03-23T10:07:40.501Z,5.73
2019-03-23T10:10:21.268Z,5.70
2019-03-23T10:12:44.333Z,5.80
2019-03-23T10:15:15.693Z,4.97
2019-03-23T10:17:46.906Z,5.77
2019-03-23T10:20:17.703Z,5.60
2019-03-23T10:22:48.519Z,5.47
2019-03-23T10:25:19.267Z,5.87
2019-03-23T10:27:50.589Z,5.10
2019-03-23T10:30:21.479Z,5.53
2019-03-23T10:32:52.354Z,6.20
2019-03-23T10:35:23.114Z,4.53
2019-03-23T10:37:53.848Z,5.20
2019-03-23T10:40:32.513Z,4.83
2019-03-23T10:42:57.442Z,5.77
2019-03-23T10:45:28.204Z,5.77
2019-03-23T10:47:59.043Z,5.83
2019-03-23T10:50:29.968Z,5.30
2019-03-23T10:53:00.742Z,6.03
2019-03-23T10:55:31.463Z,6.23
2019-03-23T10:58:02.443Z,5.83
2019-03-23T11:00:33.203Z,5.90
2019-03-23T11:03:04.067Z,5.43
2019-03-23T11:05:34.904Z,5.53
2019-03-23T11:08:05.839Z,5.50
2019-03-23T11:10:41.776Z,5.97
2019-03-23T11:13:09.444Z,6.30
2019-03-23T11:15:40.180Z,6.17
2019-03-23T11:18:11.359Z,6.20
2019-03-23T11:20:42.195Z,5.93
2019-03-23T11:23:12.969Z,6.67
2019-03-23T11:25:43.770Z,7.03
2019-03-23T11:28:14.773Z,7.30
2019-03-23T11:30:45.608Z,6.90
2019-03-23T11:33:16.430Z,6.63
2019-03-23T11:35:57.257Z,7.20
2019-03-23T11:38:19.657Z,6.03
2019-03-23T11:40:54.946Z,6.57
2019-03-23T11:43:23.210Z,7.80
2019-03-23T11:45:54.053Z,7.27
2019-03-23T11:48:24.883Z,7.73
2019-03-23T11:50:55.758Z,7.00
2019-03-23T11:53:26.540Z,7.87
2019-03-23T11:55:57.284Z,8.17
2019-03-23T11:58:28.095Z,8.67
2019-03-23T12:00:58.969Z,8.17
2019-03-23T12:03:29.823Z,9.80
2019-03-23T12:06:00.571Z,8.77
2019-03-23T12:08:31.355Z,9.47
2019-03-23T12:11:03.173Z,8.63
2019-03-23T12:13:34.309Z,8.80
2019-03-23T12:16:05.220Z,9.97
2019-03-23T12:18:36.182Z,10.00
2019-03-23T12:21:06.990Z,10.37
2019-03-23T12:23:37.911Z,9.67
2019-03-23T12:26:08.661Z,10.90
2019-03-23T12:28:39.581Z,10.10
2019-03-23T12:31:10.370Z,11.00
2019-03-23T12:33:41.157Z,9.87
2019-03-23T12:36:11.880Z,10.57
2019-03-23T12:38:42.666Z,9.80
2019-03-23T12:41:22.985Z,10.63
2019-03-23T12:43:47.154Z,11.57
2019-03-23T12:46:17.917Z,11.23
2019-03-23T12:48:50.333Z,10.33
2019-03-23T12:51:22.216Z,10.17
2019-03-23T12:53:53.001Z,12.13
2019-03-23T12:56:23.836Z,11.13
2019-03-23T12:58:54.678Z,10.83
2019-03-23T13:01:25.511Z,11.73
2019-03-23T13:03:56.315Z,11.37
2019-03-23T13:06:27.077Z,11.40
2019-03-23T13:08:57.929Z,11.97
2019-03-23T13:11:34.830Z,11.20
2019-03-23T13:14:01.276Z,11.60
2019-03-23T13:16:32.077Z,11.27
2019-03-23T13:19:04.218Z,12.63
2019-03-23T13:21:37.343Z,10.40
2019-03-23T13:24:08.231Z,11.30
2019-03-23T13:26:39.918Z,11.07
2019-03-23T13:29:10.885Z,10.93
2019-03-23T13:31:41.767Z,11.53
2019-03-23T13:34:13.982Z,10.63
2019-03-23T13:36:44.782Z,11.67
2019-03-23T13:39:15.650Z,10.47
2019-03-23T13:41:58.068Z,11.03
2019-03-23T13:44:30.769Z,11.00
2019-03-23T13:47:01.527Z,12.23
2019-03-23T13:49:32.338Z,12.60
2019-03-23T13:52:03.198Z,11.23
2019-03-23T13:54:34.110Z,11.23
2019-03-23T13:57:04.871Z,11.57
2019-03-23T13:59:37.271Z,11.90
2019-03-23T14:02:08.153Z,12.07
2019-03-23T14:04:39.040Z,12.27
2019-03-23T14:07:09.799Z,9.93
2019-03-23T14:09:40.615Z,10.03
2019-03-23T14:12:11.408Z,11.17
2019-03-23T14:14:43.333Z,11.30
2019-03-23T14:17:14.168Z,13.03
2019-03-23T14:19:45.409Z,11.63
2019-03-23T14:22:16.275Z,10.43
2019-03-23T14:24:47.090Z,11.53
2019-03-23T14:27:17.885Z,10.57
2019-03-23T14:29:48.798Z,11.17
2019-03-23T14:32:19.617Z,11.63
2019-03-23T14:34:50.420Z,12.13
2019-03-23T14:37:21.213Z,12.23
2019-03-23T14:39:51.994Z,13.13
2019-03-23T14:42:22.839Z,13.67
2019-03-23T14:44:53.744Z,12.63
2019-03-23T14:47:24.607Z,11.67
2019-03-23T14:49:55.475Z,11.70
2019-03-23T14:52:26.328Z,12.37
2019-03-23T14:54:57.139Z,10.90
2019-03-23T14:57:29.132Z,10.37
2019-03-23T15:00:00.298Z,10.87
2019-03-23T15:02:31.119Z,11.13
2019-03-23T15:05:02.014Z,9.97
2019-03-23T15:07:33.985Z,10.70
2019-03-23T15:10:05.679Z,10.50
2019-03-23T15:12:36.530Z,11.60
2019-03-23T15:15:07.646Z,11.27
2019-03-23T15:17:48.458Z,11.37
2019-03-23T15:20:12.814Z,12.07
2019-03-23T15:22:43.710Z,11.97
2019-03-23T15:25:14.503Z,12.40
2019-03-23T15:27:45.253Z,12.60
2019-03-23T15:30:16.051Z,11.80
2019-03-23T15:32:49.201Z,13.43
2019-03-23T15:35:19.948Z,12.57
2019-03-23T15:37:50.697Z,13.97
2019-03-23T15:40:21.478Z,13.83
2019-03-23T15:42:52.312Z,14.50
2019-03-23T15:45:23.598Z,14.67
2019-03-23T15:47:55.387Z,15.13
2019-03-23T15:50:26.203Z,15.27
2019-03-23T15:52:57.036Z,16.03
2019-03-23T15:55:28.850Z,15.10
2019-03-23T15:58:00.709Z,15.67
2019-03-23T16:00:31.843Z,14.80
2019-03-23T16:03:02.679Z,15.23
2019-03-23T16:05:34.704Z,16.73
2019-03-23T16:08:05.448Z,16.03
2019-03-23T16:10:37.295Z,16.40
2019-03-23T16:13:08.138Z,14.57
2019-03-23T16:15:39.345Z,15.47
2019-03-23T16:18:10.100Z,14.37
2019-03-23T16:20:41.313Z,14.93
2019-03-23T16:23:12.105Z,15.90
2019-03-23T16:25:43.002Z,15.10
2019-03-23T16:28:13.755Z,14.77
2019-03-23T16:30:44.554Z,16.37
2019-03-23T16:33:15.377Z,16.47
2019-03-23T16:35:46.246Z,15.73
2019-03-23T16:38:17.074Z,16.33
2019-03-23T16:40:47.858Z,15.90
2019-03-23T16:43:18.597Z,18.20
2019-03-23T16:45:49.589Z,17.80
2019-03-23T16:48:20.347Z,18.80
2019-03-23T16:50:51.174Z,19.03
2019-03-23T16:53:21.875Z,18.90
2019-03-23T16:55:52.718Z,20.23
2019-03-23T16:58:23.478Z,21.30
2019-03-23T17:00:54.380Z,21.83
2019-03-23T17:03:25.127Z,21.57
2019-03-23T17:05:55.962Z,22.17
2019-03-23T17:08:26.712Z,24.37
2019-03-23T17:10:57.447Z,25.30
2019-03-23T17:13:28.297Z,30.27
2019-03-23T17:15:59.272Z,30.83
2019-03-23T17:18:30.134Z,34.97
2019-03-23T17:21:01.284Z,35.13
2019-03-23T17:23:32.148Z,34.23
2019-03-23T17:26:02.976Z,36.80
2019-03-23T17:28:33.822Z,38.67
2019-03-23T17:31:04.607Z,41.03
2019-03-23T17:33:35.392Z,41.17
2019-03-23T17:36:06.263Z,43.90
2019-03-23T17:38:38.198Z,42.50
2019-03-23T17:41:10.380Z,43.53
2019-03-23T17:43:41.419Z,43.40
2019-03-23T17:46:12.484Z,42.80
2019-03-23T17:48:43.382Z,43.67
2019-03-23T17:51:14.155Z,43.20
2019-03-23T17:53:44.929Z,42.30
2019-03-23T17:56:15.719Z,43.30
2019-03-23T17:58:46.481Z,41.57
2019-03-23T18:01:19.598Z,42.70
2019-03-23T18:03:50.613Z,42.47
2019-03-23T18:06:21.478Z,42.67
2019-03-23T18:08:52.201Z,40.27
2019-03-23T18:11:23.034Z,42.07
2019-03-23T18:13:53.833Z,41.93
2019-03-23T18:16:25.038Z,42.60
2019-03-23T18:18:55.882Z,40.03
2019-03-23T18:21:26.950Z,40.03
2019-03-23T18:23:57.718Z,38.43
2019-03-23T18:26:28.492Z,36.57
2019-03-23T18:28:59.297Z,36.33
2019-03-23T18:31:30.062Z,37.07
2019-03-23T18:34:00.817Z,36.00
2019-03-23T18:36:31.665Z,40.73
2019-03-23T18:39:04.778Z,36.30
2019-03-23T18:41:35.758Z,36.33
2019-03-23T18:44:15.745Z,35.20
2019-03-23T18:46:39.233Z,37.50
2019-03-23T18:49:10.026Z,37.13
2019-03-23T18:51:40.789Z,36.67
2019-03-23T18:54:11.539Z,36.37
2019-03-23T18:56:42.293Z,36.83
2019-03-23T18:59:13.137Z,34.50
2019-03-23T19:01:43.933Z,32.63
2019-03-23T19:04:14.686Z,32.97
2019-03-23T19:06:45.456Z,43.70
2019-03-23T19:09:16.254Z,40.30
2019-03-23T19:11:47.047Z,39.77
2019-03-23T19:14:17.825Z,35.67
2019-03-23T19:16:48.639Z,30.10
2019-03-23T19:19:19.399Z,28.53
2019-03-23T19:21:51.753Z,29.20
2019-03-23T19:24:22.509Z,29.47
2019-03-23T19:26:53.279Z,27.07
2019-03-23T19:29:24.029Z,26.30
2019-03-23T19:31:55.013Z,28.70
2019-03-23T19:34:25.757Z,29.33
2019-03-23T19:36:56.658Z,28.13
2019-03-23T19:39:27.469Z,28.53
2019-03-23T19:41:58.338Z,29.80
2019-03-23T19:44:29.106Z,29.83
2019-03-23T19:46:59.935Z,31.90
2019-03-23T19:49:30.695Z,28.50
2019-03-23T19:52:01.520Z,27.00
2019-03-23T19:54:32.342Z,27.23
2019-03-23T19:57:03.162Z,26.50
2019-03-23T19:59:33.925Z,27.13
2019-03-23T20:02:04.954Z,28.27
2019-03-23T20:04:35.739Z,26.70
2019-03-23T20:07:06.717Z,26.97
2019-03-23T20:09:37.517Z,28.67
2019-03-23T20:12:10.000Z,27.63
2019-03-23T20:14:41.726Z,28.70
2019-03-23T20:17:12.719Z,29.10
2019-03-23T20:19:43.449Z,31.03
2019-03-23T20:22:14.674Z,28.57
2019-03-23T20:24:45.430Z,29.03
2019-03-23T20:27:16.276Z,29.27
2019-03-23T20:29:47.062Z,28.77
2019-03-23T20:32:18.015Z,29.27
2019-03-23T20:34:48.759Z,27.27
2019-03-23T20:37:19.542Z,30.43
2019-03-23T20:39:50.307Z,30.27
2019-03-23T20:42:21.173Z,31.93
2019-03-23T20:44:51.905Z,30.87
2019-03-23T20:47:22.733Z,29.87
2019-03-23T20:49:54.362Z,31.00
2019-03-23T20:52:25.262Z,29.47
2019-03-23T20:54:56.305Z,30.37
2019-03-23T20:57:36.991Z,30.73
2019-03-23T20:59:59.640Z,31.07
2019-03-23T21:02:30.492Z,29.93
2019-03-23T21:05:01.226Z,31.13
2019-03-23T21:07:32.056Z,30.03
2019-03-23T21:10:02.847Z,31.43
2019-03-23T21:12:33.725Z,30.03
2019-03-23T21:15:04.645Z,31.17
2019-03-23T21:17:35.641Z,31.47
2019-03-23T21:20:07.517Z,30.70
2019-03-23T21:22:38.581Z,30.73
2019-03-23T21:25:09.552Z,30.20
2019-03-23T21:27:40.334Z,30.00
2019-03-23T21:30:13.902Z,31.43
2019-03-23T21:32:44.902Z,32.60
2019-03-23T21:35:16.057Z,32.23
2019-03-23T21:37:46.944Z,32.73
2019-03-23T21:40:17.735Z,32.97
2019-03-23T21:42:49.092Z,31.80
2019-03-23T21:45:19.871Z,32.20
2019-03-23T21:47:51.057Z,33.03
2019-03-23T21:50:21.834Z,31.20
2019-03-23T21:52:52.660Z,30.30
2019-03-23T21:55:23.418Z,32.53
2019-03-23T21:57:55.274Z,31.97
2019-03-23T22:00:33.902Z,33.10
2019-03-23T22:03:04.909Z,31.67
2019-03-23T22:05:35.744Z,30.23
2019-03-23T22:08:06.503Z,33.47
2019-03-23T22:10:37.280Z,33.13
2019-03-23T22:13:08.087Z,31.80
2019-03-23T22:15:38.901Z,32.13
2019-03-23T22:18:09.688Z,32.77
2019-03-23T22:20:41.408Z,32.77
2019-03-23T22:23:12.421Z,31.27
2019-03-23T22:25:44.873Z,31.17
2019-03-23T22:28:15.740Z,32.10
2019-03-23T22:30:46.510Z,32.53
2019-03-23T22:33:17.396Z,31.47
2019-03-23T22:35:48.227Z,32.93
2019-03-23T22:38:19.018Z,34.43
2019-03-23T22:40:49.851Z,33.40
2019-03-23T22:43:20.666Z,32.10
2019-03-23T22:45:51.556Z,33.80
2019-03-23T22:48:22.352Z,33.13
2019-03-23T22:50:53.137Z,33.10
2019-03-23T22:53:23.867Z,32.93
2019-03-23T22:55:54.676Z,31.70
2019-03-23T22:58:25.452Z,32.50
2019-03-23T23:00:56.313Z,32.70
2019-03-23T23:03:27.184Z,32.83
2019-03-23T23:05:57.997Z,32.67
2019-03-23T23:08:28.767Z,32.07
2019-03-23T23:11:00.576Z,31.23
2019-03-23T23:13:31.336Z,32.50
2019-03-23T23:16:02.155Z,32.13
2019-03-23T23:18:33.127Z,31.97
2019-03-23T23:21:03.878Z,32.63
2019-03-23T23:23:34.988Z,31.37
2019-03-23T23:26:06.764Z,33.27
2019-03-23T23:28:37.576Z,33.30
2019-03-23T23:31:08.371Z,30.70
2019-03-23T23:33:39.202Z,33.57
2019-03-23T23:36:10.045Z,33.37
2019-03-23T23:38:40.834Z,31.37
2019-03-23T23:41:12.123Z,33.70
2019-03-23T23:43:42.898Z,32.73
2019-03-23T23:46:13.672Z,31.20
2019-03-23T23:48:51.266Z,31.33
2019-03-23T23:51:17.086Z,33.00
2019-03-23T23:53:47.852Z,31.83
2019-03-23T23:56:18.633Z,33.00
2019-03-23T23:58:49.390Z,31.90
